Cartagena — 5AWY — position and weather

sailwx.info

Track history (hours):
 
Tides and Currents Weather Stations Pressure Air Temp Water Temp Dewpoint Dewpoint Depression Visibility Wind Speed Wind Dir Waves Ship Positions

Cartagena

Last reported at 2018-Apr-17 12:01 UTC. Time now 2018-Apr-20 14:43 UTC.
Position N 28°39' W 093°37'.

Length 182 m; draft 10.2 m.

Type: Ship (hazmat cat C). MMSI: 642122014.

Date/timePositionNaut miles runAvg speedWind from/ knotsBaromVisibWave heightAir tempDewpointWater temp
2018-Apr-17 12:01N 28°39' W 093°37'412.0
2018-Apr-17 11:40N 28°39' W 093°42'212.1
2018-Apr-17 11:30N 28°39' W 093°44'612.1
2018-Apr-17 11:00N 28°39' W 093°51'612.0
2018-Apr-17 10:30N 28°38' W 093°58'3 4.1
2018-Apr-17 09:42N 28°39' W 094°02'1 3.8
2018-Apr-17 09:30N 28°39' W 094°01'  
2018-Apr-14 12:22N 29°11' W 094°36'0 0.0
2018-Apr-13 07:28N 29°11' W 094°36'0 0.0
2018-Apr-13 06:55N 29°11' W 094°36'0 0.0
2018-Apr-13 06:28N 29°11' W 094°36'0 0.0
2018-Apr-13 05:52N 29°11' W 094°36'0 0.0
2018-Apr-13 04:52N 29°11' W 094°36'0 0.0
2018-Apr-13 04:25N 29°11' W 094°36'0 0.0
2018-Apr-13 03:58N 29°11' W 094°36'0 0.0
2018-Apr-13 03:28N 29°11' W 094°36'0 0.0
2018-Apr-13 01:43N 29°11' W 094°36'0 0.0
2018-Apr-13 01:16N 29°11' W 094°36'0 0.0
2018-Apr-13 00:52N 29°11' W 094°36'0 0.0
2018-Apr-13 00:19N 29°11' W 094°36'0 0.0
2018-Apr-12 23:55N 29°11' W 094°36'0 0.0
2018-Apr-12 23:28N 29°11' W 094°36'0 0.0
2018-Apr-12 22:55N 29°11' W 094°36'0 0.0
2018-Apr-12 22:28N 29°11' W 094°36'0 0.0
2018-Apr-12 21:58N 29°11' W 094°36'0 0.0
2018-Apr-12 21:28N 29°11' W 094°36'0 0.0
2018-Apr-12 20:34N 29°11' W 094°36'0 0.0
2018-Apr-12 16:22N 29°11' W 094°36'0 0.0
2018-Apr-12 08:37N 29°11' W 094°36'0 0.0
2018-Apr-12 08:07N 29°11' W 094°36'0 0.1
2018-Apr-12 07:58N 29°11' W 094°36'0 0.0
2018-Apr-12 07:28N 29°11' W 094°36'0 0.0
2018-Apr-12 06:46N 29°11' W 094°36'0 0.0
2018-Apr-12 06:25N 29°11' W 094°36'0 0.0
2018-Apr-12 05:52N 29°11' W 094°36'0 0.0
2018-Apr-12 05:25N 29°11' W 094°36'0 0.0
2018-Apr-12 04:58N 29°11' W 094°36'0 0.0
2018-Apr-12 04:28N 29°11' W 094°36'0 0.0
2018-Apr-12 03:52N 29°11' W 094°36'0 0.0
2018-Apr-12 03:28N 29°11' W 094°36'0 0.0
2018-Apr-12 02:58N 29°11' W 094°36'0 0.0
2018-Apr-12 02:28N 29°11' W 094°36'0 0.0
2018-Apr-12 01:55N 29°11' W 094°36'0 0.0
2018-Apr-12 00:22N 29°11' W 094°36'0 0.0
2018-Apr-11 15:37N 29°11' W 094°36'0 0.0
2018-Apr-11 15:28N 29°11' W 094°36'0 0.0
2018-Apr-11 14:37N 29°11' W 094°36'0 0.0
2018-Apr-11 14:25N 29°11' W 094°36'0 0.0
2018-Apr-11 13:34N 29°11' W 094°36'0 0.1
2018-Apr-11 13:28N 29°11' W 094°36'0 0.0
2018-Apr-11 12:43N 29°11' W 094°36'0 0.0
2018-Apr-11 12:28N 29°11' W 094°36'0 0.0
2018-Apr-11 11:55N 29°11' W 094°36'0 0.0
2018-Apr-11 11:28N 29°11' W 094°36'0 0.0
2018-Apr-11 10:58N 29°11' W 094°36'0 0.0
2018-Apr-11 10:22N 29°11' W 094°36'0 0.0
2018-Apr-11 09:40N 29°11' W 094°36'0 0.0
2018-Apr-11 09:16N 29°11' W 094°36'0 0.0
2018-Apr-11 08:58N 29°11' W 094°36'0 0.0
2018-Apr-11 08:13N 29°11' W 094°36'0 0.0
2018-Apr-11 07:55N 29°11' W 094°36'0 0.0
2018-Apr-11 07:28N 29°11' W 094°36'0 0.0
2018-Apr-11 06:46N 29°11' W 094°36'0 0.0
2018-Apr-11 06:25N 29°11' W 094°36'0 0.0
2018-Apr-11 05:58N 29°11' W 094°36'0 0.0
2018-Apr-11 05:19N 29°11' W 094°36'0 0.0
2018-Apr-11 04:58N 29°11' W 094°36'  
2018-Apr-08 12:53N 29°25' W 094°49'411.3
2018-Apr-08 12:30N 29°29' W 094°51'611.2
2018-Apr-08 12:00N 29°33' W 094°55'510.6
2018-Apr-08 11:30N 29°38' W 094°58'5 9.8
2018-Apr-08 11:00N 29°42' W 095°01'3 5.6
2018-Apr-08 10:30N 29°44' W 095°03'  
Track history (hours):
 
Tides and Currents Weather Stations Pressure Air Temp Water Temp Dewpoint Dewpoint Depression Visibility Wind Speed Wind Dir Waves Ship Positions

Cartagena

Last reported at 2018-Apr-17 12:01 UTC. Time now 2018-Apr-20 14:43 UTC.
Position N 28°39' W 093°37'.

Length 182 m; draft 10.2 m.

Type: Ship (hazmat cat C). MMSI: 642122014.

Date/timePositionNaut miles runAvg speedWind from/ knotsBaromVisibWave heightAir tempDewpointWater temp
2018-Apr-17 12:01N 28°39' W 093°37'412.0
2018-Apr-17 11:40N 28°39' W 093°42'212.1
2018-Apr-17 11:30N 28°39' W 093°44'612.1
2018-Apr-17 11:00N 28°39' W 093°51'612.0
2018-Apr-17 10:30N 28°38' W 093°58'3 4.1
2018-Apr-17 09:42N 28°39' W 094°02'1 3.8
2018-Apr-17 09:30N 28°39' W 094°01'  
2018-Apr-14 12:22N 29°11' W 094°36'0 0.0
2018-Apr-13 07:28N 29°11' W 094°36'0 0.0
2018-Apr-13 06:55N 29°11' W 094°36'0 0.0
2018-Apr-13 06:28N 29°11' W 094°36'0 0.0
2018-Apr-13 05:52N 29°11' W 094°36'0 0.0
2018-Apr-13 04:52N 29°11' W 094°36'0 0.0
2018-Apr-13 04:25N 29°11' W 094°36'0 0.0
2018-Apr-13 03:58N 29°11' W 094°36'0 0.0
2018-Apr-13 03:28N 29°11' W 094°36'0 0.0
2018-Apr-13 01:43N 29°11' W 094°36'0 0.0
2018-Apr-13 01:16N 29°11' W 094°36'0 0.0
2018-Apr-13 00:52N 29°11' W 094°36'0 0.0
2018-Apr-13 00:19N 29°11' W 094°36'0 0.0
2018-Apr-12 23:55N 29°11' W 094°36'0 0.0
2018-Apr-12 23:28N 29°11' W 094°36'0 0.0
2018-Apr-12 22:55N 29°11' W 094°36'0 0.0
2018-Apr-12 22:28N 29°11' W 094°36'0 0.0
2018-Apr-12 21:58N 29°11' W 094°36'0 0.0
2018-Apr-12 21:28N 29°11' W 094°36'0 0.0
2018-Apr-12 20:34N 29°11' W 094°36'0 0.0
2018-Apr-12 16:22N 29°11' W 094°36'0 0.0
2018-Apr-12 08:37N 29°11' W 094°36'0 0.0
2018-Apr-12 08:07N 29°11' W 094°36'0 0.1
2018-Apr-12 07:58N 29°11' W 094°36'0 0.0
2018-Apr-12 07:28N 29°11' W 094°36'0 0.0
2018-Apr-12 06:46N 29°11' W 094°36'0 0.0
2018-Apr-12 06:25N 29°11' W 094°36'0 0.0
2018-Apr-12 05:52N 29°11' W 094°36'0 0.0
2018-Apr-12 05:25N 29°11' W 094°36'0 0.0
2018-Apr-12 04:58N 29°11' W 094°36'0 0.0
2018-Apr-12 04:28N 29°11' W 094°36'0 0.0
2018-Apr-12 03:52N 29°11' W 094°36'0 0.0
2018-Apr-12 03:28N 29°11' W 094°36'0 0.0
2018-Apr-12 02:58N 29°11' W 094°36'0 0.0
2018-Apr-12 02:28N 29°11' W 094°36'0 0.0
2018-Apr-12 01:55N 29°11' W 094°36'0 0.0
2018-Apr-12 00:22N 29°11' W 094°36'0 0.0
2018-Apr-11 15:37N 29°11' W 094°36'0 0.0
2018-Apr-11 15:28N 29°11' W 094°36'0 0.0
2018-Apr-11 14:37N 29°11' W 094°36'0 0.0
2018-Apr-11 14:25N 29°11' W 094°36'0 0.0
2018-Apr-11 13:34N 29°11' W 094°36'0 0.1
2018-Apr-11 13:28N 29°11' W 094°36'0 0.0
2018-Apr-11 12:43N 29°11' W 094°36'0 0.0
2018-Apr-11 12:28N 29°11' W 094°36'0 0.0
2018-Apr-11 11:55N 29°11' W 094°36'0 0.0
2018-Apr-11 11:28N 29°11' W 094°36'0 0.0
2018-Apr-11 10:58N 29°11' W 094°36'0 0.0
2018-Apr-11 10:22N 29°11' W 094°36'0 0.0
2018-Apr-11 09:40N 29°11' W 094°36'0 0.0
2018-Apr-11 09:16N 29°11' W 094°36'0 0.0
2018-Apr-11 08:58N 29°11' W 094°36'0 0.0
2018-Apr-11 08:13N 29°11' W 094°36'0 0.0
2018-Apr-11 07:55N 29°11' W 094°36'0 0.0
2018-Apr-11 07:28N 29°11' W 094°36'0 0.0
2018-Apr-11 06:46N 29°11' W 094°36'0 0.0
2018-Apr-11 06:25N 29°11' W 094°36'0 0.0
2018-Apr-11 05:58N 29°11' W 094°36'0 0.0
2018-Apr-11 05:19N 29°11' W 094°36'0 0.0
2018-Apr-11 04:58N 29°11' W 094°36'  
2018-Apr-08 12:53N 29°25' W 094°49'411.3
2018-Apr-08 12:30N 29°29' W 094°51'611.2
2018-Apr-08 12:00N 29°33' W 094°55'510.6
2018-Apr-08 11:30N 29°38' W 094°58'5 9.8
2018-Apr-08 11:00N 29°42' W 095°01'3 5.6
2018-Apr-08 10:30N 29°44' W 095°03'  

Dump ship's entire track history